Nearby METAR Reports

 

KJOT - Joliet, Illinois, USA
Distance from station: SSW 3mi, 6km
Updated: Sun, 24-Sep-2017 1:55pm CDT
Clear
Clear
 Wind from S
Wind: S 6 mph , 9 km/h
Temperature: 90°F , 32°C
Heat Index: 92°F , 33°C
Dew Point: 64°F , 18°C
Humidity: 43%
Barometer: 30.05 inHg , 1017.6 hPa
Clouds: Clear
Visibility: 10 miles , 16 km
2017/09/24 18:55 KJOT 241855Z AUTO 17005KT 10SM CLR 32/18 A3005 RMK AO2 T03220176
KLOT - Romeoville/Chi, Illinois, USA
Distance from station: NE 4mi, 6km
Updated: Sun, 24-Sep-2017 1:55pm CDT
Partly cloudy
Partly cloudy
 Wind from SW
Wind: SW 5 mph , 7 km/h
Temperature: 90°F , 32°C
Heat Index: 91°F , 33°C
Dew Point: 63°F , 17°C
Humidity: 41%
Barometer: 30.05 inHg , 1017.6 hPa
Clouds: Partly cloudy
Visibility: 10 miles , 16 km
Cloud details: Partly cloudy 5500 ft
2017/09/24 18:55 KLOT 241855Z AUTO 22004KT 10SM SCT055 32/17 A3005 RMK AO2 T03180166
 
KC09 - Morris-Washburn, Illinois, USA
Distance from station: SW 16mi, 26km
Updated: Sun, 24-Sep-2017 1:55pm CDT
Partly cloudy
Partly cloudy
 Wind from SSE
Wind: SSE 9 mph , 15 km/h
Temperature: 90°F , 32°C
Dew Point: 61°F , 16°C
Humidity: 38%
Barometer: 30.03 inHg , 1016.9 hPa
Clouds: Partly cloudy
Visibility: 10 miles , 16 km
Cloud details: Partly cloudy 6500 ft
2017/09/24 18:55 KC09 241855Z AUTO 16008KT 10SM SCT065 32/16 A3003 RMK AO2 T03240160
KARR - Chicago/Aurora, Illinois, USA
Distance from station: NW 22mi, 35km
Updated: Sun, 24-Sep-2017 1:52pm CDT
Clear
Clear
 Wind from SE
Wind: SE 10 mph , 17 km/h
Temperature: 90°F , 32°C
Heat Index: 92°F , 33°C
Dew Point: 64°F , 18°C
Humidity: 43%
Barometer: 30.05 inHg , 1017.6 hPa
Clouds: Clear
Visibility: 10 miles , 16 km
2017/09/24 18:52 KARR 241852Z 13009KT 110V210 10SM CLR 32/18 A3005 RMK AO2 SLP169 T03170178
 
KDPA - Chicago/Dupage, Illinois, USA
Distance from station: NNW 25mi, 40km
Updated: Sun, 24-Sep-2017 1:52pm CDT
Few Clouds
Few Clouds
 Wind from SSW
Wind: SSW 12 mph , 19 km/h, Gust: 18 mph , 30 km/h
Temperature: 90°F , 32°C
Heat Index: 91°F , 33°C
Dew Point: 63°F , 17°C
Humidity: 41%
Barometer: 30.04 inHg , 1017.3 hPa
Clouds: Few Clouds
Visibility: 8 miles , 13 km
Cloud details: Few Clouds 6000 ft
2017/09/24 18:52 KDPA 241852Z 21010G16KT 8SM FEW060 32/17 A3004 RMK AO2 SLP167 T03220172
KMDW - Chicago, Illinois, USA
Distance from station: NE 26mi, 42km
Updated: Sun, 24-Sep-2017 1:53pm CDT
Partly cloudy
Partly cloudy
 Wind from S
Wind: S 7 mph , 11 km/h
Temperature: 91°F , 33°C
Dew Point: 61°F , 16°C
Humidity: 36%
Barometer: 30.04 inHg , 1017.3 hPa
Clouds: Partly cloudy
Visibility: 10 miles , 16 km
Cloud details: Partly cloudy 7000 ft
2017/09/24 18:53 KMDW 241853Z 17006KT 10SM SCT070 33/16 A3004 RMK AO2 SLP158 T03280156
 
KORD - Chicago O'hare, Illinois, USA
Distance from station: NNE 31mi, 50km
Updated: Sun, 24-Sep-2017 1:51pm CDT
Partly cloudy
Partly cloudy
 Wind from S
Wind: S 13 mph , 20 km/h, Gust: 16 mph , 26 km/h
Temperature: 91°F , 33°C
Dew Point: 61°F , 16°C
Humidity: 36%
Barometer: 30.04 inHg , 1017.3 hPa
Clouds: Partly cloudy
Visibility: 10 miles , 16 km
Cloud details: Partly cloudy 7000 ft
2017/09/24 18:51 KORD 241851Z 18011G14KT 10SM SCT070 33/16 A3004 RMK AO2 SLP166 T03280156
KIGQ - Chicago/Lansing, Illinois, USA
Distance from station: E 32mi, 52km
Updated: Sun, 24-Sep-2017 1:55pm CDT
Clear
Clear
 Wind from SSE
Wind: SSE 6 mph , 9 km/h
Temperature: 90°F , 32°C
Heat Index: 92°F , 33°C
Dew Point: 64°F , 18°C
Humidity: 43%
Barometer: 30.05 inHg , 1017.6 hPa
Clouds: Clear
Visibility: 10 miles , 16 km
2017/09/24 18:55 KIGQ 241855Z AUTO 16005KT 10SM CLR 32/18 A3005 RMK AO2 T03200181
 
KDKB - De Kalb, Illinois, USA
Distance from station: NW 38mi, 61km
Updated: Sun, 24-Sep-2017 1:55pm CDT
Clear
Clear
 Wind from S
Wind: S 10 mph , 17 km/h
Temperature: 88°F , 31°C
Heat Index: 89°F , 32°C
Dew Point: 63°F , 17°C
Humidity: 43%
Barometer: 30.06 inHg , 1017.9 hPa
Clouds: Clear
Visibility: 10 miles , 16 km
2017/09/24 18:55 KDKB 241855Z AUTO 18009KT 10SM CLR 31/17 A3006 RMK AO2 T03120170
KIKK - Kankakee, Illinois, USA
Distance from station: SSE 38mi, 61km
Updated: Sun, 24-Sep-2017 1:55pm CDT
Clear
Clear
 Wind from SE
Wind: SE 8 mph , 13 km/h
Temperature: 88°F , 31°C
Heat Index: 89°F , 32°C
Dew Point: 63°F , 17°C
Humidity: 43%
Barometer: 30.06 inHg , 1017.9 hPa
Clouds: Clear
Visibility: 10 miles , 16 km
2017/09/24 18:55 KIKK 241855Z AUTO 14007KT 10SM CLR 31/17 A3006 RMK AO2 T03140173
 
KGYY - Gary Regional, Indiana, USA
Distance from station: E 38mi, 62km
Updated: Sun, 24-Sep-2017 1:45pm CDT
Few Clouds
Few Clouds
 Wind from SE
Wind: SE 7 mph , 11 km/h
Temperature: 91°F , 33°C
Dew Point: 50°F , 10°C
Humidity: 24%
Barometer: 30.05 inHg , 1017.6 hPa
Clouds: Few Clouds
Visibility: 15 miles , 24 km
Cloud details: Few Clouds 6000 ft
2017/09/24 18:45 KGYY 241845Z 14006KT 15SM FEW060 33/10 A3005
KPWK - Palwaukee, Illinois, USA
Distance from station: NNE 40mi, 65km
Updated: Sun, 24-Sep-2017 1:52pm CDT
Few Clouds
Few Clouds
 Wind from S
Wind: S 12 mph , 19 km/h, Gust: 18 mph , 30 km/h
Temperature: 90°F , 32°C
Dew Point: 61°F , 16°C
Humidity: 38%
Barometer: 30.05 inHg , 1017.6 hPa
Clouds: Few Clouds
Visibility: 10 miles , 16 km
Cloud details: Few Clouds 6000 ft
2017/09/24 18:52 KPWK 241852Z 19010G16KT 10SM FEW060 32/16 A3005 RMK AO2 SLP171 T03220156 $